Time;durP1;ratioP1;P1;durP2;ratioP2;P2;SDS_P1;SDS_P2;PMS_P1;PMS_P2;Temp;Humidity;BMP_temperature;BMP_pressure;BME280_temperature;BME280_humidity;BME280_pressure;Samples;Min_cycle;Max_cycle;Signal;HPM_P1;HPM_P2
2022/02/11 00:06:56;;;;;;;15.38;12.00;;;;;;;3.19;100.00;99630.70;1726479;82;21047;-61
2022/02/11 00:09:11;;;;;;;16.87;13.10;;;;;;;3.19;100.00;99625.33;1712315;82;21063;-60
2022/02/11 00:11:39;;;;;;;18.17;14.43;;;;;;;3.21;100.00;99617.84;1729135;81;21012;-61
2022/02/11 00:14:08;;;;;;;16.90;13.95;;;;;;;3.24;100.00;99613.34;1713341;82;21478;-60
2022/02/11 00:16:36;;;;;;;16.57;13.22;;;;;;;3.20;100.00;99614.32;1736183;82;21017;-60
2022/02/11 00:19:03;;;;;;;16.35;13.13;;;;;;;3.11;100.00;99609.48;1722917;82;21046;-60
2022/02/11 00:21:29;;;;;;;18.42;13.25;;;;;;;3.10;100.00;99597.08;1723868;82;21019;-61
2022/02/11 00:23:56;;;;;;;13.80;11.50;;;;;;;3.12;100.00;99595.80;1725532;82;20959;-60
2022/02/11 00:26:32;;;;;;;16.25;12.82;;;;;;;3.13;100.00;99597.97;1723817;82;20980;-61
2022/02/11 00:34:03;;;;;;;19.95;14.45;;;;;;;3.04;100.00;99586.72;1732367;82;21558;-61
2022/02/11 00:36:42;;;;;;;18.48;14.20;;;;;;;3.04;100.00;99579.99;1727030;82;20912;-61
2022/02/11 00:39:25;;;;;;;17.15;13.95;;;;;;;3.06;100.00;99584.61;1727778;82;21569;-61
2022/02/11 00:47:19;;;;;;;17.90;14.07;;;;;;;2.99;100.00;99575.80;1731985;81;21145;-60
2022/02/11 01:03:19;;;;;;;18.35;13.78;;;;;;;3.09;100.00;99584.15;1721077;82;21581;-60
2022/02/11 01:05:37;;;;;;;16.15;12.65;;;;;;;3.12;100.00;99587.72;1722494;82;21098;-62
2022/02/11 01:08:04;;;;;;;16.15;13.15;;;;;;;3.11;100.00;99577.22;1729843;81;21085;-62
2022/02/11 01:10:33;;;;;;;17.57;12.90;;;;;;;3.09;100.00;99579.29;1711654;82;21059;-62
2022/02/11 01:13:00;;;;;;;14.80;11.75;;;;;;;3.11;100.00;99579.38;1726505;82;21074;-59
2022/02/11 01:15:28;;;;;;;17.23;12.25;;;;;;;3.15;100.00;99579.23;1732889;82;21017;-60
2022/02/11 01:17:59;;;;;;;16.50;12.28;;;;;;;3.21;100.00;99582.34;1727626;82;21569;-59
2022/02/11 01:28:33;;;;;;;14.20;10.53;;;;;;;3.24;100.00;99577.85;1717123;82;21039;-61
2022/02/11 01:31:04;;;;;;;14.47;10.95;;;;;;;3.27;100.00;99573.35;1722347;82;21624;-61
2022/02/11 01:49:27;;;;;;;13.45;10.20;;;;;;;3.27;100.00;99554.52;1710164;82;21530;-61
2022/02/11 01:51:48;;;;;;;13.25;10.10;;;;;;;3.32;100.00;99548.46;1726473;82;21080;-59
2022/02/11 01:54:39;;;;;;;12.33;9.33;;;;;;;3.37;100.00;99540.50;1713705;82;21085;-60
2022/02/11 01:56:56;;;;;;;12.07;9.33;;;;;;;3.40;100.00;99538.73;1721348;82;21092;-61
2022/02/11 02:26:22;;;;;;;10.80;8.23;;;;;;;3.54;100.00;99476.09;1730572;82;21028;-61
2022/02/11 02:34:40;;;;;;;11.03;8.78;;;;;;;3.61;100.00;99462.00;1736745;82;20995;-63
2022/02/11 02:39:35;;;;;;;9.18;7.42;;;;;;;3.66;100.00;99456.20;1728640;82;21011;-62
2022/02/11 02:50:24;;;;;;;11.48;8.10;;;;;;;3.68;100.00;99455.97;1738692;82;21469;-61
2022/02/11 02:58:30;;;;;;;10.72;8.03;;;;;;;3.66;100.00;99465.62;1736385;82;21071;-61
2022/02/11 03:50:36;;;;;;;9.18;6.92;;;;;;;3.48;100.00;99402.47;1733105;82;21422;-62
2022/02/11 03:55:58;;;;;;;11.08;7.25;;;;;;;3.46;100.00;99396.00;1726052;82;21086;-62
2022/02/11 04:55:22;;;;;;;11.78;8.85;;;;;;;3.12;100.00;99360.45;1729192;82;21063;-62
2022/02/11 05:00:21;;;;;;;11.08;7.95;;;;;;;3.11;100.00;99359.36;1723919;82;20960;-65
2022/02/11 05:02:49;;;;;;;11.88;8.48;;;;;;;3.15;100.00;99364.58;1731938;81;21055;-61
2022/02/11 05:05:16;;;;;;;11.90;8.18;;;;;;;3.22;100.00;99355.86;1712642;82;21035;-62
2022/02/11 05:07:43;;;;;;;10.45;8.23;;;;;;;3.25;100.00;99352.19;1729964;82;21047;-61
2022/02/11 05:10:12;;;;;;;11.40;8.58;;;;;;;3.25;100.00;99355.39;1721627;82;21528;-61
2022/02/11 05:12:42;;;;;;;12.03;8.35;;;;;;;3.22;100.00;99354.52;1740987;81;21106;-61
2022/02/11 05:15:10;;;;;;;10.00;7.42;;;;;;;3.22;100.00;99351.31;1724806;82;21072;-61
2022/02/11 05:17:40;;;;;;;12.95;8.28;;;;;;;3.28;100.00;99352.23;1734876;82;21098;-61
2022/02/11 05:20:08;;;;;;;11.20;8.10;;;;;;;3.30;100.00;99353.63;1724390;82;21028;-61
2022/02/11 05:22:36;;;;;;;11.50;8.50;;;;;;;3.28;100.00;99347.67;1679538;85;21059;-61
2022/02/11 05:25:03;;;;;;;11.50;7.95;;;;;;;3.27;100.00;99350.06;1669147;84;21090;-62
2022/02/11 05:27:30;;;;;;;9.30;7.62;;;;;;;3.30;100.00;99360.35;1673270;84;21149;-62
2022/02/11 05:29:57;;;;;;;10.35;7.28;;;;;;;3.36;100.00;99356.75;1680876;85;21063;-61
2022/02/11 05:32:24;;;;;;;9.15;6.83;;;;;;;3.44;100.00;99355.55;1686338;85;21713;-60
2022/02/11 05:34:51;;;;;;;9.58;7.35;;;;;;;3.47;100.00;99361.84;1684913;85;21506;-61
2022/02/11 05:37:17;;;;;;;11.10;7.35;;;;;;;3.45;100.00;99357.20;1683390;84;21597;-61
2022/02/11 05:39:43;;;;;;;10.88;7.40;;;;;;;3.50;100.00;99354.11;1686003;85;22144;-61
2022/02/11 05:42:10;;;;;;;9.70;7.80;;;;;;;3.55;100.00;99354.73;1678429;85;21617;-61
2022/02/11 05:44:36;;;;;;;10.70;8.18;;;;;;;3.55;100.00;99353.91;1672390;85;21110;-63
2022/02/11 05:47:04;;;;;;;12.43;7.60;;;;;;;3.56;100.00;99356.89;1667809;85;21138;-61
2022/02/11 05:49:31;;;;;;;12.82;7.70;;;;;;;3.58;100.00;99356.16;1672416;85;21039;-62
2022/02/11 05:51:57;;;;;;;10.65;8.08;;;;;;;3.66;100.00;99357.11;1683863;85;21112;-62
2022/02/11 05:54:25;;;;;;;10.93;8.15;;;;;;;3.69;100.00;99353.95;1689769;85;21087;-61
2022/02/11 05:56:52;;;;;;;12.73;8.83;;;;;;;3.66;100.00;99359.28;1690466;83;21608;-64
2022/02/11 05:59:19;;;;;;;;;;;;;;;3.68;100.00;99360.41;1690108;85;21027;-63
2022/02/11 06:01:45;;;;;;;11.90;8.55;;;;;;;3.77;100.00;99358.98;1683655;85;20478;-64
2022/02/11 06:04:11;;;;;;;11.78;8.15;;;;;;;3.76;100.00;99358.16;1686379;85;21517;-62
2022/02/11 06:06:38;;;;;;;12.58;9.23;;;;;;;3.76;100.00;99357.33;1688840;85;21539;-62
2022/02/11 06:09:05;;;;;;;11.60;8.53;;;;;;;3.77;100.00;99356.28;1684456;85;21580;-63
2022/02/11 06:11:31;;;;;;;13.62;8.23;;;;;;;3.83;100.00;99353.45;1674379;83;21517;-63
2022/02/11 06:13:59;;;;;;;13.83;8.60;;;;;;;3.92;100.00;99349.88;1678609;85;21640;-62
2022/02/11 06:16:25;;;;;;;11.33;8.68;;;;;;;3.96;100.00;99351.87;1680809;83;21054;-62
2022/02/11 06:18:52;;;;;;;11.73;9.55;;;;;;;3.94;100.00;99351.27;1656101;83;21038;-61
2022/02/11 06:21:18;;;;;;;11.53;8.20;;;;;;;3.96;100.00;99354.56;1687778;84;21045;-62
2022/02/11 06:23:46;;;;;;;12.40;9.08;;;;;;;4.03;100.00;99348.22;1664991;86;21090;-61
2022/02/11 06:26:12;;;;;;;11.70;9.70;;;;;;;4.09;100.00;99348.59;1664878;86;21066;-62
2022/02/11 06:28:39;;;;;;;11.00;8.50;;;;;;;4.10;100.00;99350.24;1665048;85;21047;-62
2022/02/11 06:31:05;;;;;;;11.40;8.68;;;;;;;4.08;100.00;99351.81;1665864;86;21093;-61
2022/02/11 06:33:32;;;;;;;12.85;9.00;;;;;;;4.10;100.00;99346.20;1666514;86;21557;-62
2022/02/11 06:35:59;;;;;;;14.45;8.83;;;;;;;4.16;100.00;99342.02;1666836;86;21576;-62
2022/02/11 06:38:26;;;;;;;12.13;8.95;;;;;;;4.20;100.00;99331.05;1666789;85;21105;-62
2022/02/11 06:40:52;;;;;;;15.10;9.53;;;;;;;4.18;100.00;99339.89;1666640;85;21001;-62
2022/02/11 06:43:19;;;;;;;12.40;9.13;;;;;;;4.23;100.00;99344.56;1666899;86;21046;-61
2022/02/11 06:45:45;;;;;;;13.62;7.90;;;;;;;4.29;100.00;99345.77;1666741;86;21098;-62
2022/02/11 06:48:12;;;;;;;10.13;7.75;;;;;;;4.33;100.00;99342.88;1666932;86;21046;-62
2022/02/11 06:50:39;;;;;;;12.35;7.87;;;;;;;4.30;100.00;99352.80;1665525;86;21541;-62
2022/02/11 06:53:05;;;;;;;13.48;8.43;;;;;;;4.32;100.00;99352.58;1665508;85;21034;-62
2022/02/11 06:55:33;;;;;;;11.48;8.43;;;;;;;4.37;100.00;99352.13;1665128;86;21038;-62
2022/02/11 06:57:59;;;;;;;11.78;8.28;;;;;;;4.40;100.00;99346.78;1665021;85;21699;-62
2022/02/11 07:00:26;;;;;;;12.13;8.48;;;;;;;4.37;100.00;99356.17;1665003;86;21580;-63
2022/02/11 07:02:53;;;;;;;12.47;8.23;;;;;;;4.42;100.00;99356.80;1665013;85;21119;-62
2022/02/11 07:05:19;;;;;;;11.10;7.87;;;;;;;4.48;100.00;99358.52;1665051;86;21086;-63
2022/02/11 07:07:50;;;;;;;11.10;7.72;;;;;;;4.51;100.00;99355.34;1662791;85;21106;-62
2022/02/11 07:10:17;;;;;;;11.15;8.18;;;;;;;4.44;100.00;99364.11;1667779;85;21618;-63
2022/02/11 07:12:43;;;;;;;13.62;9.00;;;;;;;4.40;100.00;99357.56;1723350;82;21029;-61
2022/02/11 07:15:10;;;;;;;;;;;;;;;4.49;100.00;99368.26;1725799;83;21092;-61
2022/02/11 07:17:37;;;;;;;12.55;8.35;;;;;;;4.61;100.00;99366.31;1723295;83;20136;-61
2022/02/11 07:20:07;;;;;;;11.65;8.33;;;;;;;4.61;100.00;99362.27;1722975;83;21566;-60
2022/02/11 07:22:37;;;;;;;11.33;8.65;;;;;;;4.69;100.00;99359.19;1723020;82;21062;-61
2022/02/11 07:25:05;;;;;;;11.03;8.48;;;;;;;4.81;100.00;99357.78;1723098;83;21062;-62
2022/02/11 07:27:33;;;;;;;13.43;8.43;;;;;;;5.01;100.00;99362.98;1723282;83;21060;-63
2022/02/11 07:29:59;;;;;;;;;;;;;;;5.18;100.00;99368.90;1725931;83;21511;-62
2022/02/11 07:32:27;;;;;;;15.38;8.90;;;;;;;5.24;100.00;99370.64;1723497;83;20103;-63
2022/02/11 07:34:54;;;;;;;12.40;9.08;;;;;;;5.26;100.00;99368.50;1723350;83;21048;-63
2022/02/11 07:37:21;;;;;;;11.15;8.48;;;;;;;5.34;100.00;99377.02;1723281;83;21103;-63
2022/02/11 07:39:48;;;;;;;11.88;8.83;;;;;;;5.33;100.00;99367.80;1723365;83;21524;-63
2022/02/11 07:42:14;;;;;;;;;;;;;;;5.29;100.00;99380.97;1726012;83;21084;-62
2022/02/11 07:44:40;;;;;;;11.73;8.63;;;;;;;5.27;100.00;99368.80;1723365;83;20107;-63
2022/02/11 07:47:07;;;;;;;12.10;9.15;;;;;;;5.25;100.00;99373.59;1723267;82;21034;-62
2022/02/11 07:49:35;;;;;;;;;;;;;;;5.20;100.00;99377.59;1725506;83;21113;-63
2022/02/11 07:52:03;;;;;;;14.35;9.45;;;;;;;5.07;100.00;99377.36;1723132;82;20144;-62
2022/02/11 07:54:30;;;;;;;11.78;8.63;;;;;;;4.94;100.00;99369.59;1723197;83;21105;-63
2022/02/11 07:56:58;;;;;;;13.08;9.60;;;;;;;4.96;100.00;99368.28;1723081;82;21090;-61
2022/02/11 07:59:25;;;;;;;;;;;;;;;4.94;100.00;99364.20;1725364;82;21800;-62
2022/02/11 08:01:51;;;;;;;12.60;9.40;;;;;;;4.87;100.00;99360.31;1724248;81;20099;-63
2022/02/11 08:04:17;;;;;;;10.35;8.10;;;;;;;4.83;100.00;99369.95;1726719;82;20999;-61
2022/02/11 08:06:44;;;;;;;12.75;9.20;;;;;;;4.88;100.00;99368.70;1730126;82;21007;-61
2022/02/11 08:09:10;;;;;;;12.50;9.58;;;;;;;4.94;100.00;99362.33;1726275;82;21071;-63
2022/02/11 08:11:37;;;;;;;11.88;9.58;;;;;;;4.93;100.00;99369.30;1726252;82;21027;-63
2022/02/11 08:14:04;;;;;;;14.33;9.58;;;;;;;4.96;100.00;99371.50;1721032;82;21028;-63
2022/02/11 08:16:30;;;;;;;;;;;;;;;5.10;100.00;99372.81;1676264;82;21098;-62
2022/02/11 08:18:57;;;;;;;12.82;9.28;;;;;;;5.21;100.00;99378.67;1730320;82;20444;-63
2022/02/11 08:21:24;;;;;;;12.55;9.48;;;;;;;5.17;100.00;99379.43;1730969;82;21016;-64
2022/02/11 08:23:52;;;;;;;16.57;10.00;;;;;;;5.21;100.00;99379.23;1737999;82;21011;-63
2022/02/11 08:26:18;;;;;;;12.50;9.98;;;;;;;5.26;100.00;99386.86;1731745;82;21015;-65
2022/02/11 08:28:45;;;;;;;;;;;;;;;5.36;100.00;99384.32;1725199;82;21102;-63
2022/02/11 10:24:47;;;;;;;17.02;12.50;;;;;;;5.98;100.00;99458.47;1792474;79;22560;-61
2022/02/11 10:27:28;;;;;;;17.98;13.45;;;;;;;5.93;100.00;99467.84;1745295;82;21054;-61
2022/02/11 10:29:58;;;;;;;17.70;13.03;;;;;;;5.93;100.00;99469.19;1725259;83;21104;-62
2022/02/11 10:32:48;;;;;;;17.82;12.88;;;;;;;5.98;100.00;99463.34;1725490;82;21648;-62
2022/02/11 10:35:27;;;;;;;19.32;13.45;;;;;;;6.04;100.00;99460.17;1725475;83;21391;-62
2022/02/11 10:38:11;;;;;;;;;;;;;;;6.04;100.00;99463.41;1727772;82;21636;-62
2022/02/11 10:40:40;;;;;;;18.73;12.88;;;;;;;6.02;100.00;99466.38;1725468;83;20155;-62
2022/02/11 10:43:22;;;;;;;19.42;13.90;;;;;;;5.97;100.00;99471.16;1725160;82;21149;-61
2022/02/11 10:45:49;;;;;;;20.00;13.53;;;;;;;6.04;100.00;99476.91;1725685;83;21007;-62
2022/02/11 10:48:23;;;;;;;19.10;13.83;;;;;;;6.03;100.00;99476.62;1725508;82;21090;-62
2022/02/11 10:50:56;;;;;;;18.98;13.22;;;;;;;5.96;100.00;99474.09;1725541;83;21043;-62
2022/02/11 10:53:31;;;;;;;18.02;12.60;;;;;;;5.97;100.00;99473.04;1725583;82;21101;-62
2022/02/11 10:56:00;;;;;;;18.57;13.08;;;;;;;6.02;100.00;99479.88;1731284;83;20958;-61
2022/02/11 10:58:28;;;;;;;19.37;14.45;;;;;;;5.98;100.00;99483.61;1731282;83;21614;-62
2022/02/11 11:01:01;;;;;;;17.45;13.00;;;;;;;5.94;100.00;99487.88;1731211;83;21448;-62
2022/02/11 11:03:31;;;;;;;17.50;13.40;;;;;;;5.97;100.00;99494.66;1727674;82;21030;-62
2022/02/11 11:05:56;;;;;;;17.20;12.15;;;;;;;6.07;100.00;99488.05;1725345;83;20963;-62
2022/02/11 11:08:23;;;;;;;15.90;12.28;;;;;;;6.18;100.00;99488.48;1725617;82;21058;-63
2022/02/11 11:10:49;;;;;;;18.27;13.43;;;;;;;6.28;100.00;99491.31;1725451;83;21054;-61
2022/02/11 11:13:16;;;;;;;18.62;12.88;;;;;;;6.41;100.00;99484.74;1727000;82;21130;-60
2022/02/11 11:15:44;;;;;;;19.00;13.22;;;;;;;6.52;100.00;99489.75;1731094;83;21045;-60
2022/02/11 11:18:11;;;;;;;16.48;12.43;;;;;;;6.83;100.00;99484.45;1731075;83;21088;-62
2022/02/11 11:20:38;;;;;;;15.80;12.23;;;;;;;7.16;100.00;99486.67;1731228;83;20981;-63
2022/02/11 11:26:09;;;;;;;17.20;12.40;;;;;;;7.13;100.00;99487.18;1801763;79;22943;-62
2022/02/11 11:28:51;;;;;;;16.20;12.20;;;;;;;6.96;100.00;99492.17;1753657;81;21936;-61
2022/02/11 11:31:29;;;;;;;17.45;12.85;;;;;;;6.96;100.00;99500.81;1753207;81;21612;-61
2022/02/11 11:34:21;;;;;;;16.93;13.32;;;;;;;6.89;100.00;99498.84;1738774;82;21070;-62
2022/02/11 11:36:49;;;;;;;21.57;14.43;;;;;;;6.77;100.00;99494.09;1723032;83;21125;-62
2022/02/11 11:39:18;;;;;;;18.48;13.43;;;;;;;6.62;100.00;99497.45;1723142;82;21114;-62
2022/02/11 11:42:08;;;;;;;19.00;13.13;;;;;;;6.63;100.00;99498.24;1746365;82;21074;-62
2022/02/11 11:44:51;;;;;;;16.57;12.65;;;;;;;6.55;100.00;99491.95;1744002;82;21050;-61
2022/02/11 11:47:35;;;;;;;16.00;11.15;;;;;;;6.44;100.00;99497.76;1752736;82;21059;-62
2022/02/11 11:50:08;;;;;;;21.33;16.32;;;;;;;6.47;100.00;99493.20;1723949;82;21538;-63
2022/02/11 11:52:43;;;;;;;17.45;13.13;;;;;;;6.38;100.00;99498.73;1747189;82;21003;-62
2022/02/11 11:55:24;;;;;;;17.73;13.78;;;;;;;6.24;100.00;99495.58;1723284;83;21002;-63
2022/02/11 11:57:51;;;;;;;14.25;10.60;;;;;;;6.19;100.00;99497.41;1723248;83;21565;-62
2022/02/11 12:00:39;;;;;;;24.47;16.00;;;;;;;6.19;100.00;99496.06;1735269;82;21382;-62
2022/02/11 12:03:05;;;;;;;12.00;9.00;;;;;;;6.18;100.00;99499.29;1723993;82;21097;-62
2022/02/11 12:05:53;;;;;;;11.30;8.58;;;;;;;6.09;100.00;99500.80;1725481;82;21062;-62
2022/02/11 12:08:16;;;;;;;11.40;8.90;;;;;;;6.05;100.00;99505.05;1726239;82;21125;-61
2022/02/11 12:10:46;;;;;;;10.80;9.30;;;;;;;6.12;100.00;99505.70;1735489;82;20971;-61
2022/02/11 12:13:13;;;;;;;10.53;7.70;;;;;;;6.22;100.00;99503.13;1734187;82;21082;-62
2022/02/11 12:15:40;;;;;;;;;;;;;;;6.25;100.00;99503.16;1748790;82;21086;-63
2022/02/11 12:18:06;;;;;;;10.13;7.92;;;;;;;6.22;100.00;99496.38;1752086;82;20102;-63
2022/02/11 12:20:33;;;;;;;11.73;8.30;;;;;;;6.10;100.00;99507.81;1725804;82;21086;-65
2022/02/11 12:28:31;;;;;;;10.03;7.12;;;;;;;6.08;100.00;99518.06;1730526;82;21035;-64
2022/02/11 12:31:04;;;;;;;9.68;6.95;;;;;;;6.07;100.00;99516.95;1729364;82;21054;-64
2022/02/11 12:33:26;;;;;;;10.60;6.80;;;;;;;6.14;100.00;99525.70;1753425;82;21565;-65
2022/02/11 12:35:53;;;;;;;;;;;;;;;6.18;100.00;99511.98;1756360;81;21641;-65
2022/02/11 12:38:19;;;;;;;8.80;6.35;;;;;;;6.20;100.00;99519.33;1745062;82;20138;-65
2022/02/11 12:40:46;;;;;;;;;;;;;;;6.12;100.00;99527.84;1756084;82;21054;-66
2022/02/11 12:43:13;;;;;;;9.75;6.60;;;;;;;6.10;100.00;99527.26;1753457;82;20130;-66
2022/02/11 12:45:42;;;;;;;11.75;6.92;;;;;;;5.99;100.00;99524.41;1737287;81;21062;-64
2022/02/11 12:48:13;;;;;;;8.40;5.80;;;;;;;6.02;100.00;99529.88;1753608;82;21561;-65
2022/02/11 12:55:14;;;;;;;6.87;5.12;;;;;;;6.04;100.00;99522.85;1802625;79;23513;-65
2022/02/11 12:57:42;;;;;;;6.47;4.47;;;;;;;5.87;100.00;99522.88;1768851;80;21189;-65
2022/02/11 13:00:14;;;;;;;6.83;4.92;;;;;;;5.81;100.00;99521.13;1748724;81;21519;-66
2022/02/11 13:02:41;;;;;;;7.97;4.70;;;;;;;5.84;100.00;99528.73;1733421;82;21157;-66
2022/02/11 13:05:11;;;;;;;6.40;4.30;;;;;;;5.90;100.00;99530.48;1740535;82;21039;-65
2022/02/11 13:15:04;;;;;;;4.58;3.20;;;;;;;5.83;100.00;99528.45;1785875;79;28673;-61
2022/02/11 13:17:31;;;;;;;5.10;3.30;;;;;;;6.05;100.00;99532.08;1776072;80;21066;-61
2022/02/11 13:20:12;;;;;;;5.70;3.50;;;;;;;6.09;100.00;99539.98;1794073;80;21065;-61
2022/02/11 13:22:41;;;;;;;5.85;3.65;;;;;;;5.92;100.00;99540.49;1783169;80;21018;-61
2022/02/11 13:25:09;;;;;;;5.78;3.58;;;;;;;5.80;100.00;99537.87;1764897;80;20970;-61
2022/02/11 13:27:47;;;;;;;6.62;3.85;;;;;;;5.75;100.00;99542.34;1777908;80;21002;-62
2022/02/11 13:30:32;;;;;;;7.33;4.20;;;;;;;5.67;100.00;99542.22;1794581;80;21544;-60
2022/02/11 13:33:00;;;;;;;6.90;3.75;;;;;;;5.60;100.00;99550.22;1786889;80;21066;-62
2022/02/11 13:35:27;;;;;;;6.70;3.87;;;;;;;5.53;100.00;99547.64;1782089;80;20994;-62
2022/02/11 13:37:59;;;;;;;6.65;3.60;;;;;;;5.54;100.00;99549.29;1764595;80;21065;-61
2022/02/11 13:40:27;;;;;;;6.85;3.62;;;;;;;5.62;100.00;99548.90;1774263;80;20975;-63
2022/02/11 13:51:05;;;;;;;13.68;7.80;;;;;;;5.65;100.00;99543.53;1800651;79;23001;-60
2022/02/11 13:53:41;;;;;;;6.22;3.42;;;;;;;5.53;100.00;99548.47;1753677;81;21098;-60
2022/02/11 13:56:12;;;;;;;5.67;3.25;;;;;;;5.56;100.00;99550.41;1739663;82;21007;-60
2022/02/11 13:58:41;;;;;;;4.65;2.47;;;;;;;5.53;100.00;99556.30;1722928;83;21062;-60
2022/02/11 14:01:28;;;;;;;3.25;1.90;;;;;;;5.45;100.00;99551.59;1718678;83;20999;-60
2022/02/11 14:04:07;;;;;;;3.90;1.95;;;;;;;5.39;100.00;99560.63;1723061;83;21069;-60
2022/02/11 14:06:37;;;;;;;3.65;2.02;;;;;;;5.31;100.00;99557.00;1724150;82;21388;-61
2022/02/11 14:09:08;;;;;;;5.17;2.20;;;;;;;5.29;100.00;99567.72;1723184;83;21026;-59
2022/02/11 14:11:39;;;;;;;5.47;2.90;;;;;;;5.31;100.00;99562.39;1742554;82;20971;-59
2022/02/11 14:14:17;;;;;;;6.28;3.08;;;;;;;5.28;100.00;99561.50;1753215;81;21519;-59
2022/02/11 14:16:42;;;;;;;5.80;3.45;;;;;;;5.24;100.00;99560.38;1752873;81;20960;-59
2022/02/11 14:19:09;;;;;;;5.25;2.87;;;;;;;5.22;100.00;99563.00;1719858;83;21037;-59
2022/02/11 14:21:36;;;;;;;5.30;2.60;;;;;;;5.21;100.00;99561.39;1697739;84;21106;-60
2022/02/11 14:24:05;;;;;;;;;;;;;;;5.26;100.00;99559.59;1693449;85;21018;-60
2022/02/11 14:26:32;;;;;;;5.55;2.92;;;;;;;5.29;100.00;99566.37;1632284;87;20145;-60
2022/02/11 14:28:58;;;;;;;7.97;3.52;;;;;;;5.20;100.00;99573.23;1659836;85;21525;-60
2022/02/11 14:31:25;;;;;;;7.00;3.83;;;;;;;5.17;100.00;99574.54;1663442;86;21513;-60
2022/02/11 14:33:51;;;;;;;6.37;3.60;;;;;;;5.15;100.00;99578.52;1663110;86;21066;-60
2022/02/11 14:36:18;;;;;;;7.20;4.12;;;;;;;5.12;100.00;99592.49;1662916;85;21053;-61
2022/02/11 14:38:44;;;;;;;7.30;3.70;;;;;;;5.12;100.00;99592.49;1672481;85;21139;-60
2022/02/11 14:43:56;;;;;;;9.45;4.78;;;;;;;5.18;100.00;99598.27;1706232;84;21078;-60
2022/02/11 14:46:22;;;;;;;11.57;4.80;;;;;;;5.10;100.00;99596.77;1689800;84;21026;-60
2022/02/11 14:48:48;;;;;;;7.75;4.28;;;;;;;5.05;100.00;99599.38;1677283;84;21221;-59
2022/02/11 14:51:15;;;;;;;5.28;2.90;;;;;;;4.99;100.00;99603.05;1665849;85;21071;-60
2022/02/11 14:53:41;;;;;;;4.12;2.00;;;;;;;4.92;100.00;99603.70;1673710;85;21175;-59
2022/02/11 14:56:08;;;;;;;17.55;10.75;;;;;;;4.85;100.00;99613.80;1687126;85;21070;-60
2022/02/11 14:58:34;;;;;;;53.08;31.35;;;;;;;4.77;100.00;99619.55;1684273;85;21055;-59
2022/02/11 15:01:05;;;;;;;72.00;46.60;;;;;;;4.72;100.00;99628.88;1709829;82;20976;-60
2022/02/11 15:03:32;;;;;;;33.53;22.00;;;;;;;4.70;100.00;99637.22;1705878;82;21030;-61
2022/02/11 15:05:59;;;;;;;36.65;24.25;;;;;;;4.60;100.00;99640.21;1697791;82;21097;-60
2022/02/11 15:08:25;;;;;;;41.08;28.85;;;;;;;4.47;100.00;99633.98;1739286;82;21589;-61
2022/02/11 15:10:52;;;;;;;9.70;7.05;;;;;;;4.36;100.00;99633.45;1722413;82;21039;-61
2022/02/11 15:13:18;;;;;;;14.73;10.78;;;;;;;4.23;100.00;99633.69;1703298;84;20991;-61
2022/02/11 15:15:46;;;;;;;9.10;4.33;;;;;;;4.14;100.00;99635.63;1695502;84;21664;-64
2022/02/11 15:18:13;;;;;;;6.20;3.70;;;;;;;4.10;100.00;99634.44;1688116;83;21126;-62
2022/02/11 15:20:47;;;;;;;19.00;13.75;;;;;;;4.02;100.00;99632.91;1684363;84;21091;-62
2022/02/11 15:23:11;;;;;;;13.50;8.58;;;;;;;3.90;100.00;99634.73;1641655;86;21590;-63
2022/02/11 15:25:37;;;;;;;31.60;23.47;;;;;;;3.81;100.00;99639.65;1678926;84;21605;-63
2022/02/11 15:28:05;;;;;;;26.80;20.70;;;;;;;3.71;100.00;99646.64;1677755;84;21597;-63
2022/02/11 15:30:33;;;;;;;19.85;14.43;;;;;;;3.62;100.00;99650.69;1675282;84;21083;-63
2022/02/11 15:33:01;;;;;;;14.90;11.00;;;;;;;3.58;100.00;99651.67;1685853;84;21099;-63
2022/02/11 15:35:29;;;;;;;9.13;6.53;;;;;;;3.59;100.00;99651.98;1724860;82;21409;-63
2022/02/11 15:37:56;;;;;;;10.90;7.85;;;;;;;3.55;100.00;99645.92;1674278;85;21123;-63
2022/02/11 15:40:27;;;;;;;12.18;9.20;;;;;;;3.44;100.00;99648.34;1675058;85;21554;-64
2022/02/11 15:42:52;;;;;;;9.88;6.53;;;;;;;3.32;100.00;99655.56;1670461;86;21131;-64
2022/02/11 15:45:18;;;;;;;10.13;7.37;;;;;;;3.19;100.00;99669.16;1670704;85;21051;-64
2022/02/11 15:47:44;;;;;;;9.73;5.10;;;;;;;3.09;100.00;99668.88;1671643;86;21123;-64
2022/02/11 15:50:11;;;;;;;9.55;5.62;;;;;;;3.01;100.00;99675.92;1689933;83;21114;-63
2022/02/11 15:52:39;;;;;;;9.73;4.75;;;;;;;2.91;100.00;99671.04;1698728;84;21087;-63
2022/02/11 15:55:07;;;;;;;10.18;4.50;;;;;;;2.85;100.00;99676.49;1698926;84;21086;-63
2022/02/11 15:57:34;;;;;;;8.58;4.50;;;;;;;2.86;100.00;99680.83;1698130;84;21070;-64
2022/02/11 16:00:00;;;;;;;7.72;4.08;;;;;;;2.82;100.00;99687.18;1699042;84;21063;-64
2022/02/11 16:02:27;;;;;;;7.80;3.67;;;;;;;2.76;100.00;99689.42;1699167;84;21087;-65
2022/02/11 16:04:53;;;;;;;7.10;3.87;;;;;;;2.68;100.00;99693.73;1698958;84;21115;-64
2022/02/11 16:07:20;;;;;;;6.42;3.60;;;;;;;2.60;100.00;99699.38;1698824;84;21189;-64
2022/02/11 16:09:49;;;;;;;8.38;3.80;;;;;;;2.54;100.00;99700.80;1697816;84;21087;-64
2022/02/11 16:12:15;;;;;;;7.60;3.00;;;;;;;2.51;100.00;99698.83;1698760;84;21578;-64
2022/02/11 16:14:41;;;;;;;4.85;2.98;;;;;;;2.50;100.00;99708.47;1698694;84;21665;-65
2022/02/11 16:17:09;;;;;;;7.08;3.27;;;;;;;2.43;100.00;99705.84;1698288;84;21636;-64
2022/02/11 16:19:36;;;;;;;5.85;2.72;;;;;;;2.39;100.00;99715.90;1698199;84;21190;-64
2022/02/11 16:22:04;;;;;;;;;;;;;;;2.32;100.00;99711.10;1701092;84;21107;-64
2022/02/11 16:24:33;;;;;;;6.75;3.00;;;;;;;2.26;100.00;99712.81;1698784;84;20142;-64
2022/02/11 16:27:00;;;;;;;5.92;3.08;;;;;;;2.15;100.00;99714.85;1696816;84;21617;-64
2022/02/11 16:29:27;;;;;;;6.30;3.40;;;;;;;2.15;100.00;99728.28;1675068;84;21644;-65
2022/02/11 16:31:54;;;;;;;7.12;3.30;;;;;;;2.14;100.00;99725.80;1674798;83;21039;-64
2022/02/11 16:34:22;;;;;;;5.60;2.80;;;;;;;2.16;100.00;99728.56;1677567;84;21082;-64
2022/02/11 16:36:49;;;;;;;6.80;3.35;;;;;;;2.19;100.00;99731.36;1697580;84;21083;-64
2022/02/11 16:39:15;;;;;;;5.58;3.42;;;;;;;2.16;100.00;99733.94;1697975;84;21043;-63
2022/02/11 16:41:42;;;;;;;;;;;;;;;2.11;100.00;99734.30;1700839;84;21028;-64
2022/02/11 16:44:29;;;;;;;6.28;3.33;;;;;;;2.04;100.00;99733.00;1707460;84;20118;-64
2022/02/11 16:46:57;;;;;;;6.72;3.72;;;;;;;1.90;100.00;99738.15;1706999;84;21738;-63
2022/02/11 16:49:28;;;;;;;9.00;5.00;;;;;;;1.88;100.00;99738.35;1707254;82;21648;-64
2022/02/11 16:51:53;;;;;;;17.57;10.23;;;;;;;1.84;100.00;99737.68;1706707;84;21094;-64
2022/02/11 16:54:20;;;;;;;30.48;16.85;;;;;;;1.80;100.00;99737.28;1707652;82;21711;-64
2022/02/11 16:56:49;;;;;;;14.47;7.75;;;;;;;1.78;100.00;99730.46;1709973;82;21667;-64
2022/02/11 16:59:19;;;;;;;11.57;6.75;;;;;;;1.75;100.00;99730.90;1703358;84;21014;-63
2022/02/11 17:01:49;;;;;;;12.23;6.90;;;;;;;1.70;100.00;99733.42;1703422;83;21561;-63
2022/02/11 17:04:18;;;;;;;13.28;6.85;;;;;;;1.65;100.00;99737.25;1710419;84;21010;-64
2022/02/11 17:06:48;;;;;;;19.52;10.58;;;;;;;1.60;100.00;99741.91;1707890;84;21110;-64
2022/02/11 17:09:16;;;;;;;17.40;10.30;;;;;;;1.55;100.00;99745.77;1707960;83;21081;-64
2022/02/11 17:11:46;;;;;;;16.87;9.75;;;;;;;1.52;100.00;99742.17;1707868;84;21584;-64
2022/02/11 17:14:15;;;;;;;16.32;8.58;;;;;;;1.50;100.00;99738.34;1708235;84;21524;-64
2022/02/11 17:16:45;;;;;;;28.77;14.75;;;;;;;1.52;100.00;99730.61;1677839;84;21058;-64
2022/02/11 17:19:13;;;;;;;22.20;11.85;;;;;;;1.49;100.00;99739.38;1703427;84;21490;-64
2022/02/11 17:21:42;;;;;;;17.95;9.78;;;;;;;1.43;100.00;99738.06;1703342;83;21050;-64
2022/02/11 17:24:15;;;;;;;19.48;11.00;;;;;;;1.36;100.00;99734.08;1703469;84;21007;-64
2022/02/11 17:26:41;;;;;;;18.57;10.32;;;;;;;1.34;100.00;99738.84;1703040;84;21585;-64
2022/02/11 17:29:09;;;;;;;16.93;9.88;;;;;;;1.20;100.00;99721.16;1703508;84;21444;-64
2022/02/11 17:31:38;;;;;;;20.48;11.48;;;;;;;1.27;100.00;99740.72;1708516;84;21074;-65
2022/02/11 17:34:08;;;;;;;17.73;10.55;;;;;;;1.24;100.00;99742.46;1707920;83;21014;-65
2022/02/11 17:36:35;;;;;;;18.05;10.03;;;;;;;1.21;100.00;99737.52;1708037;84;21026;-64